createdAt,value
2022-11-22T00:00:10.487Z,1003.76
2022-11-22T00:16:02.254Z,1003.8
2022-11-22T00:31:03.403Z,1003.32
2022-11-22T00:46:04.479Z,1003.53
2022-11-22T01:00:00.470Z,1003.46
2022-11-22T01:16:01.250Z,1003.46
2022-11-22T01:31:21.468Z,1003.32
2022-11-22T01:46:03.280Z,1003.42
2022-11-22T02:00:04.253Z,1003.15
2022-11-22T02:16:00.085Z,1002.92
2022-11-22T02:31:00.652Z,1002.92
2022-11-22T02:46:01.601Z,1002.61
2022-11-22T03:00:02.291Z,1002.37
2022-11-22T03:16:02.944Z,1002.24
2022-11-22T03:31:03.594Z,1002.27
2022-11-22T03:45:59.690Z,1002.1
2022-11-22T04:00:00.733Z,1001.97
2022-11-22T04:16:01.712Z,1001.93
2022-11-22T04:31:02.802Z,1001.87
2022-11-22T04:46:03.632Z,1001.63
2022-11-22T05:00:04.420Z,1001.53
2022-11-22T05:16:00.086Z,1001.66
2022-11-22T05:31:01.055Z,1001.56
2022-11-22T05:46:02.074Z,1001.46
2022-11-22T06:00:02.697Z,1001.43
2022-11-22T06:16:03.442Z,1001.46
2022-11-22T06:31:04.208Z,1001.36
2022-11-22T06:46:00.108Z,1001.49
2022-11-22T07:00:00.986Z,1001.32
2022-11-22T07:16:01.949Z,1001.32
2022-11-22T07:31:03.055Z,1001.53
2022-11-22T07:46:04.800Z,1001.49
2022-11-22T07:59:59.931Z,1001.53
2022-11-22T08:16:05.127Z,1001.36
2022-11-22T08:31:01.732Z,1001.05
2022-11-22T08:46:02.474Z,1001.02
2022-11-22T09:00:03.400Z,1000.99
2022-11-22T09:16:04.545Z,1000.85
2022-11-22T09:31:00.348Z,1000.58
2022-11-22T09:46:01.068Z,1000.48
2022-11-22T10:00:02.082Z,1000.24
2022-11-22T10:16:03.003Z,999.8
2022-11-22T10:31:04.110Z,999.5
2022-11-22T10:45:59.915Z,998.95
2022-11-22T11:00:00.965Z,998.85
2022-11-22T11:16:02.090Z,998.78
2022-11-22T11:31:03.330Z,998.75
2022-11-22T11:46:04.259Z,998.68
2022-11-22T12:00:00.223Z,998.78
2022-11-22T12:16:00.989Z,998.82
2022-11-22T12:31:01.876Z,998.85
2022-11-22T12:46:02.471Z,998.99
2022-11-22T13:00:03.332Z,999.16
2022-11-22T13:16:03.971Z,999.16
2022-11-22T13:31:00.132Z,999.16
2022-11-22T13:46:19.710Z,999.46
2022-11-22T14:00:02.084Z,999.46
2022-11-22T14:16:03.119Z,999.46
2022-11-22T14:31:04.128Z,999.67
2022-11-22T14:46:01.555Z,999.73
2022-11-22T15:00:01.031Z,999.7
2022-11-22T16:00:00.973Z,1000.31
2022-11-22T16:16:02.263Z,1000.21
2022-11-22T16:31:03.919Z,1000.24
2022-11-22T16:46:00.330Z,1000.17
2022-11-22T17:00:01.678Z,1000.11
2022-11-22T17:16:04.042Z,1000.14
2022-11-22T17:31:01.410Z,1000.17
2022-11-22T17:46:03.542Z,1000.31
2022-11-22T18:00:00.677Z,1000.27
2022-11-22T18:16:03.669Z,1000.48
2022-11-22T18:31:00.165Z,1000.55
2022-11-22T18:46:02.534Z,1000.61
2022-11-22T18:59:59.552Z,1000.65
2022-11-22T19:16:02.017Z,1000.75
2022-11-22T19:31:04.314Z,1000.78
2022-11-22T19:46:01.438Z,1000.85
2022-11-22T20:00:03.422Z,1000.78
2022-11-22T20:16:00.774Z,1000.51
2022-11-22T20:31:03.144Z,1000.72
2022-11-22T20:46:00.287Z,1001.12
2022-11-22T21:00:02.351Z,1001.22
2022-11-22T21:15:59.733Z,1001.32
2022-11-22T21:31:02.039Z,1001.29
2022-11-22T21:46:04.217Z,1001.22
2022-11-22T22:00:01.332Z,1001.39
2022-11-22T22:16:03.970Z,1001.49
2022-11-22T22:31:01.166Z,1001.7
2022-11-22T22:46:06.512Z,1001.8
2022-11-22T23:00:00.596Z,1001.93
2022-11-22T23:16:03.042Z,1002.07
2022-11-22T23:31:00.309Z,1002.1
2022-11-22T23:46:02.648Z,1002.07
2022-11-22T23:59:59.714Z,1002.04
